createdAt,value
2023-04-11T00:04:01.014Z,57.03
2023-04-11T00:09:06.968Z,54.95
2023-04-11T00:14:12.816Z,52.60
2023-04-11T00:19:17.365Z,50.17
2023-04-11T00:24:23.088Z,54.17
2023-04-11T00:29:27.488Z,53.08
2023-04-11T00:34:32.227Z,57.58
2023-04-11T00:39:38.612Z,51.67
2023-04-11T00:44:43.002Z,48.28
2023-04-11T00:49:47.510Z,46.95
2023-04-11T00:54:53.500Z,48.75
2023-04-11T00:59:58.483Z,50.45
2023-04-11T01:05:02.770Z,54.00
2023-04-11T01:10:11.384Z,50.65
2023-04-11T01:15:15.862Z,49.75
2023-04-11T01:20:21.823Z,72.13
2023-04-11T01:25:28.307Z,52.08
2023-04-11T01:30:33.379Z,46.30
2023-04-11T01:35:37.793Z,42.08
2023-04-11T01:40:44.743Z,43.75
2023-04-11T01:45:49.346Z,41.38
2023-04-11T01:50:53.581Z,42.03
2023-04-11T01:55:59.196Z,45.75
2023-04-11T02:01:03.396Z,39.95
2023-04-11T02:06:08.349Z,52.63
2023-04-11T02:11:14.108Z,44.83
2023-04-11T02:16:18.547Z,41.42
2023-04-11T02:21:23.061Z,39.80
2023-04-11T02:26:28.865Z,60.88
2023-04-11T02:31:34.318Z,46.30
2023-04-11T02:36:38.547Z,49.10
2023-04-11T02:41:44.251Z,41.58
2023-04-11T02:46:48.691Z,49.05
2023-04-11T02:51:52.911Z,65.43
2023-04-11T02:56:58.767Z,42.70
2023-04-11T03:02:03.660Z,38.88
2023-04-11T03:07:08.590Z,45.72
2023-04-11T03:12:14.335Z,130.88
2023-04-11T03:17:29.188Z,55.75
2023-04-11T03:22:34.148Z,42.67
2023-04-11T03:27:40.202Z,79.40
2023-04-11T03:32:44.779Z,42.47
2023-04-11T03:37:49.499Z,49.05
2023-04-11T03:42:55.700Z,49.17
2023-04-11T03:48:04.711Z,53.90
2023-04-11T03:53:22.647Z,38.22
2023-04-11T03:58:32.905Z,46.67
2023-04-11T04:03:37.873Z,44.90
2023-04-11T04:08:42.273Z,41.83
2023-04-11T04:13:48.974Z,40.97
2023-04-11T04:24:03.883Z,44.05
2023-04-11T04:29:35.030Z,49.80
2023-04-11T04:34:47.052Z,41.22
2023-04-11T04:40:02.364Z,44.13
2023-04-11T04:45:11.749Z,41.22
2023-04-11T04:50:17.644Z,40.13
2023-04-11T04:55:22.040Z,46.17
2023-04-11T05:00:29.496Z,49.47
2023-04-11T05:05:38.232Z,39.55
2023-04-11T05:10:42.472Z,42.25
2023-04-11T05:15:54.397Z,87.57
2023-04-11T05:21:05.290Z,49.10
2023-04-11T05:26:15.561Z,79.78
2023-04-11T05:31:21.914Z,125.78
2023-04-11T05:36:26.564Z,33.90
2023-04-11T05:41:31.504Z,233.70
2023-04-11T05:46:37.992Z,217.95
2023-04-11T05:51:42.193Z,27.70
2023-04-11T05:56:46.602Z,27.10
2023-04-11T06:01:52.761Z,32.17
2023-04-11T06:06:57.566Z,33.92
2023-04-11T06:12:02.024Z,20.20
2023-04-11T06:17:07.809Z,23.30
2023-04-11T06:22:11.986Z,40.80
2023-04-11T06:27:16.679Z,29.70
2023-04-11T06:32:23.351Z,78.25
2023-04-11T06:37:27.683Z,24.85
2023-04-11T06:42:31.893Z,25.35
2023-04-11T06:47:37.672Z,25.75
2023-04-11T06:52:41.832Z,21.25
2023-04-11T06:57:46.151Z,92.53
2023-04-11T07:02:52.897Z,21.15
2023-04-11T07:07:57.304Z,67.63
2023-04-11T07:13:01.736Z,16.23
2023-04-11T07:18:08.040Z,15.88
2023-04-11T07:23:12.442Z,14.63
2023-04-11T07:28:17.224Z,10.25
2023-04-11T07:33:22.801Z,10.60
2023-04-11T07:38:31.223Z,9.40
2023-04-11T07:43:35.367Z,8.55
2023-04-11T07:48:41.263Z,9.85
2023-04-11T07:53:45.831Z,6.15
2023-04-11T07:58:50.352Z,8.73
2023-04-11T08:03:57.072Z,6.90
2023-04-11T08:09:02.173Z,6.75
2023-04-11T08:14:06.599Z,7.13
2023-04-11T08:19:12.828Z,6.85
2023-04-11T08:24:17.864Z,8.05
2023-04-11T08:29:22.379Z,6.90
2023-04-11T08:34:28.197Z,6.55
2023-04-11T08:39:32.547Z,9.63
2023-04-11T08:44:37.347Z,6.47
2023-04-11T08:49:43.130Z,5.43
2023-04-11T08:54:47.525Z,5.40
2023-04-11T08:59:52.569Z,5.30
2023-04-11T09:04:59.234Z,5.93
2023-04-11T09:10:20.019Z,5.47
2023-04-11T09:15:25.866Z,5.32
2023-04-11T09:20:31.695Z,5.00
2023-04-11T09:25:45.764Z,5.28
2023-04-11T09:30:52.449Z,5.10
2023-04-11T09:35:58.750Z,5.32
2023-04-11T09:41:04.968Z,5.60
2023-04-11T09:46:10.565Z,5.47
2023-04-11T09:51:31.768Z,4.88
2023-04-11T09:56:40.063Z,6.15
2023-04-11T10:01:45.021Z,14.02
2023-04-11T10:07:02.364Z,6.72
2023-04-11T10:12:07.362Z,5.20
2023-04-11T10:17:22.174Z,4.90
2023-04-11T10:23:03.595Z,5.50
2023-04-11T10:28:08.180Z,5.00
2023-04-11T10:33:13.409Z,5.47
2023-04-11T10:38:50.389Z,5.72
2023-04-11T10:44:15.046Z,5.43
2023-04-11T10:49:36.810Z,7.88
2023-04-11T10:54:42.679Z,5.20
2023-04-11T11:00:00.289Z,5.30
2023-04-11T11:05:19.752Z,6.32
2023-04-11T11:10:43.087Z,4.45
2023-04-11T11:15:51.466Z,10.60
2023-04-11T11:20:57.146Z,4.55
2023-04-11T11:26:02.860Z,6.35
2023-04-11T11:31:07.646Z,5.53
2023-04-11T11:36:12.907Z,5.40
2023-04-11T11:41:18.813Z,6.18
2023-04-11T11:46:23.386Z,5.60
2023-04-11T11:51:28.226Z,7.10
2023-04-11T11:56:34.109Z,6.88
2023-04-11T12:01:39.139Z,5.57
2023-04-11T12:06:46.271Z,6.03
2023-04-11T12:11:56.453Z,5.75
2023-04-11T12:17:00.937Z,6.60
2023-04-11T12:22:05.656Z,6.30
2023-04-11T12:27:12.786Z,6.88
2023-04-11T12:32:17.357Z,6.82
2023-04-11T12:37:22.179Z,5.93
2023-04-11T12:42:28.326Z,6.75
2023-04-11T12:47:32.811Z,8.10
2023-04-11T12:52:38.250Z,7.07
2023-04-11T12:57:43.964Z,6.93
2023-04-11T13:02:48.791Z,6.32
2023-04-11T13:07:53.750Z,8.35
2023-04-11T13:13:05.404Z,7.03
2023-04-11T13:18:16.242Z,8.32
2023-04-11T13:23:20.752Z,6.45
2023-04-11T13:28:26.382Z,9.48
2023-04-11T13:33:30.802Z,7.13
2023-04-11T13:38:35.363Z,8.68
2023-04-11T13:43:41.376Z,6.65
2023-04-11T13:48:45.827Z,7.85
2023-04-11T13:53:50.166Z,11.00
2023-04-11T13:58:56.579Z,10.02
2023-04-11T14:04:01.922Z,8.57
2023-04-11T14:09:06.877Z,9.50
2023-04-11T14:14:13.113Z,9.27
2023-04-11T14:19:17.349Z,9.63
2023-04-11T14:24:22.438Z,10.52
2023-04-11T14:29:30.029Z,10.10
2023-04-11T14:34:34.193Z,8.13
2023-04-11T14:39:40.112Z,10.45
2023-04-11T14:44:45.639Z,7.60
2023-04-11T14:49:50.226Z,10.05
2023-04-11T14:54:54.558Z,9.95
2023-04-11T15:00:01.900Z,14.52
2023-04-11T15:05:06.819Z,14.32
2023-04-11T15:10:11.867Z,13.57
2023-04-11T15:15:17.504Z,18.08
2023-04-11T15:20:22.285Z,22.17
2023-04-11T15:25:26.796Z,18.83
2023-04-11T15:30:32.625Z,17.90
2023-04-11T15:35:36.747Z,16.88
2023-04-11T15:40:41.271Z,20.67
2023-04-11T15:45:47.089Z,23.17
2023-04-11T15:50:52.001Z,25.30
2023-04-11T15:55:56.468Z,18.48
2023-04-11T16:01:02.586Z,17.65
2023-04-11T16:06:08.052Z,22.40
2023-04-11T16:11:12.551Z,20.85
2023-04-11T16:16:18.466Z,21.70
2023-04-11T16:21:25.009Z,18.25
2023-04-11T16:26:29.207Z,23.52
2023-04-11T16:31:35.149Z,29.42
2023-04-11T16:36:39.615Z,36.85
2023-04-11T16:41:44.411Z,27.73
2023-04-11T16:46:50.049Z,30.92
2023-04-11T16:51:54.397Z,167.43
2023-04-11T16:56:58.796Z,27.40
2023-04-11T17:02:04.632Z,21.02
2023-04-11T17:07:10.546Z,26.73
2023-04-11T17:12:15.167Z,26.65
2023-04-11T17:17:21.163Z,34.00
2023-04-11T17:22:25.640Z,19.20
2023-04-11T17:27:30.326Z,10.50
2023-04-11T17:32:38.217Z,8.93
2023-04-11T17:37:43.076Z,11.70
2023-04-11T17:42:47.824Z,21.60
2023-04-11T17:47:54.167Z,20.98
2023-04-11T17:52:58.413Z,79.85
2023-04-11T17:58:03.766Z,91.50
2023-04-11T18:03:10.463Z,87.13
2023-04-11T18:08:15.002Z,109.97
2023-04-11T18:13:19.240Z,55.13
2023-04-11T18:18:25.854Z,76.80
2023-04-11T18:23:30.820Z,103.68
2023-04-11T18:28:35.439Z,63.88
2023-04-11T18:33:44.312Z,24.30
2023-04-11T18:39:04.160Z,19.08
2023-04-11T18:44:09.747Z,22.33
2023-04-11T18:49:17.836Z,13.80
2023-04-11T18:54:23.636Z,17.35
2023-04-11T18:59:29.676Z,22.48
2023-04-11T19:04:36.596Z,13.32
2023-04-11T19:09:41.072Z,19.58
2023-04-11T19:14:45.691Z,15.60
2023-04-11T19:19:51.905Z,16.27
2023-04-11T19:24:56.730Z,25.70
2023-04-11T19:30:01.015Z,23.05
2023-04-11T19:35:08.928Z,24.95
2023-04-11T19:40:14.401Z,20.60
2023-04-11T19:45:20.636Z,24.20
2023-04-11T19:50:26.703Z,22.60
2023-04-11T19:55:31.255Z,20.67
2023-04-11T20:00:37.785Z,20.88
2023-04-11T20:05:43.845Z,20.45
2023-04-11T20:10:48.834Z,28.23
2023-04-11T20:15:53.168Z,22.02
2023-04-11T20:20:58.998Z,26.48
2023-04-11T20:26:03.152Z,45.03
2023-04-11T20:31:08.550Z,29.38
2023-04-11T20:36:15.863Z,28.02
2023-04-11T20:41:20.305Z,24.13
2023-04-11T20:46:24.797Z,23.58
2023-04-11T20:51:30.886Z,18.65
2023-04-11T20:56:35.802Z,21.83
2023-04-11T21:01:40.954Z,19.85
2023-04-11T21:06:46.629Z,24.45
2023-04-11T21:11:50.821Z,18.88
2023-04-11T21:16:55.010Z,24.88
2023-04-11T21:22:01.033Z,19.50
2023-04-11T21:27:05.603Z,21.17
2023-04-11T21:32:10.273Z,17.83
2023-04-11T21:37:16.100Z,18.20
2023-04-11T21:42:20.202Z,17.10
2023-04-11T21:47:24.585Z,22.10
2023-04-11T21:52:30.373Z,16.05
2023-04-11T21:57:35.331Z,15.60
2023-04-11T22:02:39.862Z,16.25
2023-04-11T22:07:49.637Z,13.50
2023-04-11T22:12:54.810Z,11.82
2023-04-11T22:18:02.435Z,11.07
2023-04-11T22:23:09.764Z,10.65
2023-04-11T22:28:18.520Z,9.93
2023-04-11T22:33:22.729Z,8.32
2023-04-11T22:38:28.344Z,55.15
2023-04-11T22:43:33.477Z,38.67
2023-04-11T22:48:38.092Z,10.77
2023-04-11T22:53:48.328Z,10.43
2023-04-11T22:58:52.723Z,21.08
2023-04-11T23:03:57.758Z,13.85
2023-04-11T23:09:04.164Z,30.42
2023-04-11T23:14:08.522Z,9.50
2023-04-11T23:19:13.271Z,13.52
2023-04-11T23:24:18.868Z,10.63
2023-04-11T23:29:23.179Z,11.07
2023-04-11T23:34:27.488Z,10.50
2023-04-11T23:39:33.329Z,9.73
2023-04-11T23:44:37.715Z,9.82
2023-04-11T23:49:42.021Z,12.60
2023-04-11T23:54:48.069Z,8.75
2023-04-11T23:59:52.597Z,23.20
